sensor_id;sensor_type;location;lat;lon;timestamp;P1;durP1;ratioP1;P2;durP2;ratioP2
46713;SDS011;32445;51.376;10.874;2022-10-16T00:00:16;0.40;;;0.40;;
46713;SDS011;32445;51.376;10.874;2022-10-16T00:03:17;0.80;;;0.60;;
46713;SDS011;32445;51.376;10.874;2022-10-16T00:06:18;0.33;;;0.30;;
46713;SDS011;32445;51.376;10.874;2022-10-16T00:09:20;0.50;;;0.47;;
46713;SDS011;32445;51.376;10.874;2022-10-16T00:12:20;0.43;;;0.40;;
46713;SDS011;32445;51.376;10.874;2022-10-16T00:15:20;0.70;;;0.70;;
46713;SDS011;32445;51.376;10.874;2022-10-16T00:18:21;1.33;;;0.67;;
46713;SDS011;32445;51.376;10.874;2022-10-16T00:21:23;0.60;;;0.40;;
46713;SDS011;32445;51.376;10.874;2022-10-16T00:24:25;0.40;;;0.40;;
46713;SDS011;32445;51.376;10.874;2022-10-16T00:27:25;0.77;;;0.77;;
46713;SDS011;32445;51.376;10.874;2022-10-16T00:30:25;1.03;;;0.70;;
46713;SDS011;32445;51.376;10.874;2022-10-16T00:33:27;0.52;;;0.30;;
46713;SDS011;32445;51.376;10.874;2022-10-16T00:36:28;0.37;;;0.30;;
46713;SDS011;32445;51.376;10.874;2022-10-16T00:39:28;0.50;;;0.50;;
46713;SDS011;32445;51.376;10.874;2022-10-16T00:42:28;0.83;;;0.83;;
46713;SDS011;32445;51.376;10.874;2022-10-16T00:45:29;0.30;;;0.30;;
46713;SDS011;32445;51.376;10.874;2022-10-16T00:48:29;0.73;;;0.67;;
46713;SDS011;32445;51.376;10.874;2022-10-16T00:51:36;0.57;;;0.30;;
46713;SDS011;32445;51.376;10.874;2022-10-16T00:54:41;1.58;;;0.50;;
46713;SDS011;32445;51.376;10.874;2022-10-16T00:57:41;1.20;;;0.60;;
46713;SDS011;32445;51.376;10.874;2022-10-16T01:00:43;1.55;;;0.40;;
46713;SDS011;32445;51.376;10.874;2022-10-16T01:03:43;1.00;;;0.53;;
46713;SDS011;32445;51.376;10.874;2022-10-16T01:13:35;2.03;;;0.50;;
46713;SDS011;32445;51.376;10.874;2022-10-16T01:16:43;1.98;;;0.60;;
46713;SDS011;32445;51.376;10.874;2022-10-16T01:29:26;0.65;;;0.30;;
46713;SDS011;32445;51.376;10.874;2022-10-16T01:32:34;0.20;;;0.20;;
46713;SDS011;32445;51.376;10.874;2022-10-16T01:35:41;2.03;;;0.40;;
46713;SDS011;32445;51.376;10.874;2022-10-16T01:38:46;0.40;;;0.35;;
46713;SDS011;32445;51.376;10.874;2022-10-16T01:41:52;0.95;;;0.30;;
46713;SDS011;32445;51.376;10.874;2022-10-16T01:44:58;0.38;;;0.38;;
46713;SDS011;32445;51.376;10.874;2022-10-16T01:48:00;0.60;;;0.43;;
46713;SDS011;32445;51.376;10.874;2022-10-16T01:51:08;2.05;;;0.17;;
46713;SDS011;32445;51.376;10.874;2022-10-16T01:54:11;0.70;;;0.40;;
46713;SDS011;32445;51.376;10.874;2022-10-16T01:57:16;0.20;;;0.20;;
46713;SDS011;32445;51.376;10.874;2022-10-16T02:00:19;0.77;;;0.40;;
46713;SDS011;32445;51.376;10.874;2022-10-16T02:03:21;0.47;;;0.30;;
46713;SDS011;32445;51.376;10.874;2022-10-16T02:06:21;0.43;;;0.30;;
46713;SDS011;32445;51.376;10.874;2022-10-16T02:09:23;0.77;;;0.40;;
46713;SDS011;32445;51.376;10.874;2022-10-16T02:12:25;0.33;;;0.33;;
46713;SDS011;32445;51.376;10.874;2022-10-16T02:15:28;0.32;;;0.32;;
46713;SDS011;32445;51.376;10.874;2022-10-16T02:18:28;0.47;;;0.47;;
46713;SDS011;32445;51.376;10.874;2022-10-16T02:21:40;1.10;;;0.60;;
46713;SDS011;32445;51.376;10.874;2022-10-16T02:24:58;0.30;;;0.30;;
46713;SDS011;32445;51.376;10.874;2022-10-16T02:28:03;1.92;;;0.70;;
46713;SDS011;32445;51.376;10.874;2022-10-16T02:31:06;1.95;;;0.68;;
46713;SDS011;32445;51.376;10.874;2022-10-16T02:34:11;0.50;;;0.50;;
46713;SDS011;32445;51.376;10.874;2022-10-16T02:37:13;1.00;;;0.57;;
46713;SDS011;32445;51.376;10.874;2022-10-16T02:40:16;3.40;;;0.60;;
46713;SDS011;32445;51.376;10.874;2022-10-16T02:43:18;3.60;;;0.50;;
46713;SDS011;32445;51.376;10.874;2022-10-16T02:46:19;0.55;;;0.52;;
46713;SDS011;32445;51.376;10.874;2022-10-16T02:49:19;0.57;;;0.40;;
46713;SDS011;32445;51.376;10.874;2022-10-16T02:52:20;4.27;;;0.50;;
46713;SDS011;32445;51.376;10.874;2022-10-16T02:55:20;1.40;;;0.50;;
46713;SDS011;32445;51.376;10.874;2022-10-16T02:58:20;0.63;;;0.60;;
46713;SDS011;32445;51.376;10.874;2022-10-16T03:01:21;0.60;;;0.60;;
46713;SDS011;32445;51.376;10.874;2022-10-16T03:04:22;1.03;;;0.50;;
46713;SDS011;32445;51.376;10.874;2022-10-16T03:07:22;0.40;;;0.40;;
46713;SDS011;32445;51.376;10.874;2022-10-16T03:10:23;0.50;;;0.50;;
46713;SDS011;32445;51.376;10.874;2022-10-16T03:13:23;0.93;;;0.40;;
46713;SDS011;32445;51.376;10.874;2022-10-16T03:16:23;0.83;;;0.40;;
46713;SDS011;32445;51.376;10.874;2022-10-16T03:19:24;0.77;;;0.40;;
46713;SDS011;32445;51.376;10.874;2022-10-16T03:22:24;2.10;;;0.60;;
46713;SDS011;32445;51.376;10.874;2022-10-16T03:25:24;2.13;;;0.40;;
46713;SDS011;32445;51.376;10.874;2022-10-16T03:28:25;1.57;;;0.60;;
46713;SDS011;32445;51.376;10.874;2022-10-16T03:31:25;0.53;;;0.40;;
46713;SDS011;32445;51.376;10.874;2022-10-16T03:34:25;0.97;;;0.40;;
46713;SDS011;32445;51.376;10.874;2022-10-16T03:37:26;0.50;;;0.50;;
46713;SDS011;32445;51.376;10.874;2022-10-16T03:40:26;1.83;;;0.40;;
46713;SDS011;32445;51.376;10.874;2022-10-16T03:43:27;2.53;;;0.57;;
46713;SDS011;32445;51.376;10.874;2022-10-16T03:46:27;2.47;;;0.33;;
46713;SDS011;32445;51.376;10.874;2022-10-16T03:49:27;0.40;;;0.40;;
46713;SDS011;32445;51.376;10.874;2022-10-16T03:52:28;3.80;;;0.57;;
46713;SDS011;32445;51.376;10.874;2022-10-16T03:55:28;0.70;;;0.70;;
46713;SDS011;32445;51.376;10.874;2022-10-16T03:58:28;1.07;;;0.60;;
46713;SDS011;32445;51.376;10.874;2022-10-16T04:01:29;0.50;;;0.50;;
46713;SDS011;32445;51.376;10.874;2022-10-16T04:04:29;0.40;;;0.40;;
46713;SDS011;32445;51.376;10.874;2022-10-16T04:07:29;0.50;;;0.50;;
46713;SDS011;32445;51.376;10.874;2022-10-16T04:10:30;1.90;;;0.40;;
46713;SDS011;32445;51.376;10.874;2022-10-16T04:13:30;1.33;;;0.50;;
46713;SDS011;32445;51.376;10.874;2022-10-16T04:16:30;2.77;;;0.53;;
46713;SDS011;32445;51.376;10.874;2022-10-16T04:19:31;1.50;;;0.43;;
46713;SDS011;32445;51.376;10.874;2022-10-16T04:22:31;0.47;;;0.40;;
46713;SDS011;32445;51.376;10.874;2022-10-16T04:25:31;1.37;;;0.50;;
46713;SDS011;32445;51.376;10.874;2022-10-16T04:28:32;2.53;;;0.50;;
46713;SDS011;32445;51.376;10.874;2022-10-16T04:31:32;0.90;;;0.50;;
46713;SDS011;32445;51.376;10.874;2022-10-16T04:34:33;0.50;;;0.50;;
46713;SDS011;32445;51.376;10.874;2022-10-16T04:37:33;1.03;;;0.83;;
46713;SDS011;32445;51.376;10.874;2022-10-16T04:40:34;0.43;;;0.40;;
46713;SDS011;32445;51.376;10.874;2022-10-16T04:43:36;1.02;;;0.40;;
46713;SDS011;32445;51.376;10.874;2022-10-16T04:46:36;1.23;;;0.60;;
46713;SDS011;32445;51.376;10.874;2022-10-16T04:49:37;0.30;;;0.30;;
46713;SDS011;32445;51.376;10.874;2022-10-16T04:52:37;0.77;;;0.43;;
46713;SDS011;32445;51.376;10.874;2022-10-16T04:55:38;1.27;;;0.50;;
46713;SDS011;32445;51.376;10.874;2022-10-16T04:58:39;0.40;;;0.40;;
46713;SDS011;32445;51.376;10.874;2022-10-16T05:01:39;0.80;;;0.73;;
46713;SDS011;32445;51.376;10.874;2022-10-16T05:04:40;1.00;;;0.40;;
46713;SDS011;32445;51.376;10.874;2022-10-16T05:07:40;6.00;;;0.70;;
46713;SDS011;32445;51.376;10.874;2022-10-16T05:10:41;2.03;;;0.57;;
46713;SDS011;32445;51.376;10.874;2022-10-16T05:16:42;1.13;;;0.70;;
46713;SDS011;32445;51.376;10.874;2022-10-16T05:19:43;2.40;;;1.33;;
46713;SDS011;32445;51.376;10.874;2022-10-16T05:22:43;0.53;;;0.53;;
46713;SDS011;32445;51.376;10.874;2022-10-16T05:25:43;1.20;;;1.07;;
46713;SDS011;32445;51.376;10.874;2022-10-16T05:28:52;1.25;;;0.85;;
46713;SDS011;32445;51.376;10.874;2022-10-16T05:31:52;0.87;;;0.70;;
46713;SDS011;32445;51.376;10.874;2022-10-16T05:34:53;1.63;;;0.80;;
46713;SDS011;32445;51.376;10.874;2022-10-16T05:37:53;2.70;;;1.00;;
46713;SDS011;32445;51.376;10.874;2022-10-16T05:40:54;1.50;;;0.80;;
46713;SDS011;32445;51.376;10.874;2022-10-16T05:43:54;4.43;;;0.90;;
46713;SDS011;32445;51.376;10.874;2022-10-16T05:46:54;0.90;;;0.90;;
46713;SDS011;32445;51.376;10.874;2022-10-16T05:49:55;2.43;;;1.20;;
46713;SDS011;32445;51.376;10.874;2022-10-16T05:52:56;1.33;;;0.80;;
46713;SDS011;32445;51.376;10.874;2022-10-16T05:55:57;0.93;;;0.93;;
46713;SDS011;32445;51.376;10.874;2022-10-16T05:58:57;1.40;;;1.23;;
46713;SDS011;32445;51.376;10.874;2022-10-16T06:01:58;3.50;;;1.20;;
46713;SDS011;32445;51.376;10.874;2022-10-16T06:04:58;1.20;;;1.10;;
46713;SDS011;32445;51.376;10.874;2022-10-16T06:07:58;1.53;;;0.90;;
46713;SDS011;32445;51.376;10.874;2022-10-16T06:11:02;1.30;;;1.20;;
46713;SDS011;32445;51.376;10.874;2022-10-16T06:14:04;1.55;;;0.85;;
46713;SDS011;32445;51.376;10.874;2022-10-16T06:17:06;2.63;;;0.75;;
46713;SDS011;32445;51.376;10.874;2022-10-16T06:20:07;3.90;;;0.70;;
46713;SDS011;32445;51.376;10.874;2022-10-16T06:23:07;0.67;;;0.57;;
46713;SDS011;32445;51.376;10.874;2022-10-16T06:26:12;0.60;;;0.60;;
46713;SDS011;32445;51.376;10.874;2022-10-16T06:29:14;4.70;;;0.70;;
46713;SDS011;32445;51.376;10.874;2022-10-16T06:32:14;1.30;;;0.90;;
46713;SDS011;32445;51.376;10.874;2022-10-16T06:35:15;0.77;;;0.77;;
46713;SDS011;32445;51.376;10.874;2022-10-16T06:38:15;1.27;;;0.80;;
46713;SDS011;32445;51.376;10.874;2022-10-16T06:41:16;2.17;;;0.97;;
46713;SDS011;32445;51.376;10.874;2022-10-16T06:44:18;8.75;;;0.80;;
46713;SDS011;32445;51.376;10.874;2022-10-16T06:47:19;0.87;;;0.67;;
46713;SDS011;32445;51.376;10.874;2022-10-16T06:50:19;0.60;;;0.60;;
46713;SDS011;32445;51.376;10.874;2022-10-16T06:53:19;0.90;;;0.60;;
46713;SDS011;32445;51.376;10.874;2022-10-16T06:56:21;0.70;;;0.70;;
46713;SDS011;32445;51.376;10.874;2022-10-16T06:59:23;1.30;;;0.75;;
46713;SDS011;32445;51.376;10.874;2022-10-16T07:02:23;0.60;;;0.60;;
46713;SDS011;32445;51.376;10.874;2022-10-16T07:05:23;1.80;;;1.40;;
46713;SDS011;32445;51.376;10.874;2022-10-16T07:08:23;2.27;;;1.00;;
46713;SDS011;32445;51.376;10.874;2022-10-16T07:11:24;0.73;;;0.73;;
46713;SDS011;32445;51.376;10.874;2022-10-16T07:14:24;3.70;;;0.83;;
46713;SDS011;32445;51.376;10.874;2022-10-16T07:17:25;2.40;;;0.70;;
46713;SDS011;32445;51.376;10.874;2022-10-16T07:20:25;0.67;;;0.67;;
46713;SDS011;32445;51.376;10.874;2022-10-16T07:23:25;2.23;;;0.70;;
46713;SDS011;32445;51.376;10.874;2022-10-16T07:26:26;1.40;;;0.80;;
46713;SDS011;32445;51.376;10.874;2022-10-16T07:29:27;1.73;;;0.95;;
46713;SDS011;32445;51.376;10.874;2022-10-16T07:32:28;0.67;;;0.60;;
46713;SDS011;32445;51.376;10.874;2022-10-16T07:35:28;0.87;;;0.67;;
46713;SDS011;32445;51.376;10.874;2022-10-16T07:38:28;0.73;;;0.50;;
46713;SDS011;32445;51.376;10.874;2022-10-16T07:41:29;7.90;;;0.63;;
46713;SDS011;32445;51.376;10.874;2022-10-16T07:44:30;8.93;;;1.25;;
46713;SDS011;32445;51.376;10.874;2022-10-16T07:47:30;1.60;;;0.50;;
46713;SDS011;32445;51.376;10.874;2022-10-16T07:50:30;0.83;;;0.60;;
46713;SDS011;32445;51.376;10.874;2022-10-16T07:53:31;0.50;;;0.40;;
46713;SDS011;32445;51.376;10.874;2022-10-16T07:56:32;0.50;;;0.50;;
46713;SDS011;32445;51.376;10.874;2022-10-16T07:59:33;0.90;;;0.30;;
46713;SDS011;32445;51.376;10.874;2022-10-16T08:02:33;0.93;;;0.33;;
46713;SDS011;32445;51.376;10.874;2022-10-16T08:05:33;2.03;;;0.50;;
46713;SDS011;32445;51.376;10.874;2022-10-16T08:08:34;0.70;;;0.70;;
46713;SDS011;32445;51.376;10.874;2022-10-16T08:11:35;0.40;;;0.40;;
46713;SDS011;32445;51.376;10.874;2022-10-16T08:14:35;0.50;;;0.50;;
46713;SDS011;32445;51.376;10.874;2022-10-16T08:17:36;0.53;;;0.50;;
46713;SDS011;32445;51.376;10.874;2022-10-16T08:20:37;0.30;;;0.30;;
46713;SDS011;32445;51.376;10.874;2022-10-16T08:23:37;0.40;;;0.40;;
46713;SDS011;32445;51.376;10.874;2022-10-16T08:26:37;2.60;;;0.30;;
46713;SDS011;32445;51.376;10.874;2022-10-16T08:29:38;0.83;;;0.50;;
46713;SDS011;32445;51.376;10.874;2022-10-16T08:32:38;1.17;;;0.40;;
46713;SDS011;32445;51.376;10.874;2022-10-16T08:35:38;0.30;;;0.30;;
46713;SDS011;32445;51.376;10.874;2022-10-16T08:38:39;1.13;;;0.53;;
46713;SDS011;32445;51.376;10.874;2022-10-16T08:45:07;0.47;;;0.40;;
46713;SDS011;32445;51.376;10.874;2022-10-16T08:48:20;2.07;;;0.40;;
46713;SDS011;32445;51.376;10.874;2022-10-16T08:51:27;2.05;;;0.52;;
46713;SDS011;32445;51.376;10.874;2022-10-16T08:54:32;3.05;;;0.57;;
46713;SDS011;32445;51.376;10.874;2022-10-16T08:57:40;0.60;;;0.40;;
46713;SDS011;32445;51.376;10.874;2022-10-16T09:00:40;5.97;;;0.63;;
46713;SDS011;32445;51.376;10.874;2022-10-16T09:07:25;0.85;;;0.40;;
46713;SDS011;32445;51.376;10.874;2022-10-16T09:10:40;0.80;;;0.30;;
46713;SDS011;32445;51.376;10.874;2022-10-16T09:14:06;1.42;;;0.70;;
46713;SDS011;32445;51.376;10.874;2022-10-16T09:20:44;0.82;;;0.32;;
46713;SDS011;32445;51.376;10.874;2022-10-16T09:23:51;0.77;;;0.40;;
46713;SDS011;32445;51.376;10.874;2022-10-16T09:26:53;1.77;;;0.40;;
46713;SDS011;32445;51.376;10.874;2022-10-16T09:29:54;2.47;;;0.43;;
46713;SDS011;32445;51.376;10.874;2022-10-16T09:32:54;2.23;;;0.30;;
46713;SDS011;32445;51.376;10.874;2022-10-16T09:35:58;2.72;;;0.65;;
46713;SDS011;32445;51.376;10.874;2022-10-16T09:39:05;0.95;;;0.50;;
46713;SDS011;32445;51.376;10.874;2022-10-16T09:42:27;3.05;;;1.60;;
46713;SDS011;32445;51.376;10.874;2022-10-16T09:45:32;0.40;;;0.40;;
46713;SDS011;32445;51.376;10.874;2022-10-16T09:51:37;3.13;;;0.50;;
46713;SDS011;32445;51.376;10.874;2022-10-16T09:54:37;0.90;;;0.40;;
46713;SDS011;32445;51.376;10.874;2022-10-16T10:00:53;0.93;;;0.30;;
46713;SDS011;32445;51.376;10.874;2022-10-16T10:03:55;2.10;;;0.40;;
46713;SDS011;32445;51.376;10.874;2022-10-16T10:07:00;0.63;;;0.45;;
46713;SDS011;32445;51.376;10.874;2022-10-16T10:10:03;0.73;;;0.30;;
46713;SDS011;32445;51.376;10.874;2022-10-16T10:13:14;0.82;;;0.25;;
46713;SDS011;32445;51.376;10.874;2022-10-16T10:16:23;0.98;;;0.40;;
46713;SDS011;32445;51.376;10.874;2022-10-16T10:19:24;0.40;;;0.30;;
46713;SDS011;32445;51.376;10.874;2022-10-16T10:22:31;0.30;;;0.30;;
46713;SDS011;32445;51.376;10.874;2022-10-16T10:25:48;2.13;;;0.30;;
46713;SDS011;32445;51.376;10.874;2022-10-16T10:39:11;1.75;;;0.57;;
46713;SDS011;32445;51.376;10.874;2022-10-16T10:45:42;0.40;;;0.20;;
46713;SDS011;32445;51.376;10.874;2022-10-16T10:52:37;2.15;;;0.35;;
46713;SDS011;32445;51.376;10.874;2022-10-16T11:02:23;0.73;;;0.40;;
46713;SDS011;32445;51.376;10.874;2022-10-16T11:08:49;0.68;;;0.30;;
46713;SDS011;32445;51.376;10.874;2022-10-16T11:12:18;0.63;;;0.40;;
46713;SDS011;32445;51.376;10.874;2022-10-16T11:15:35;1.17;;;0.30;;
46713;SDS011;32445;51.376;10.874;2022-10-16T11:22:39;0.55;;;0.20;;
46713;SDS011;32445;51.376;10.874;2022-10-16T11:25:45;0.08;;;0.00;;
46713;SDS011;32445;51.376;10.874;2022-10-16T11:28:48;0.10;;;0.10;;
46713;SDS011;32445;51.376;10.874;2022-10-16T11:31:52;0.30;;;0.15;;
46713;SDS011;32445;51.376;10.874;2022-10-16T11:34:58;3.03;;;0.10;;
46713;SDS011;32445;51.376;10.874;2022-10-16T11:38:02;1.30;;;0.25;;
46713;SDS011;32445;51.376;10.874;2022-10-16T11:47:47;0.80;;;0.30;;
46713;SDS011;32445;51.376;10.874;2022-10-16T11:51:01;7.43;;;0.30;;
46713;SDS011;32445;51.376;10.874;2022-10-16T11:57:34;2.30;;;0.20;;
46713;SDS011;32445;51.376;10.874;2022-10-16T12:00:46;0.85;;;0.10;;
46713;SDS011;32445;51.376;10.874;2022-10-16T12:07:24;0.38;;;0.20;;
46713;SDS011;32445;51.376;10.874;2022-10-16T12:10:36;2.17;;;0.20;;
46713;SDS011;32445;51.376;10.874;2022-10-16T12:13:40;2.28;;;0.10;;
46713;SDS011;32445;51.376;10.874;2022-10-16T12:16:52;0.20;;;0.20;;
46713;SDS011;32445;51.376;10.874;2022-10-16T12:23:23;6.07;;;0.20;;
46713;SDS011;32445;51.376;10.874;2022-10-16T12:26:26;1.55;;;0.17;;
46713;SDS011;32445;51.376;10.874;2022-10-16T12:32:35;1.13;;;0.30;;
46713;SDS011;32445;51.376;10.874;2022-10-16T12:35:42;0.30;;;0.10;;
46713;SDS011;32445;51.376;10.874;2022-10-16T12:41:47;2.47;;;0.25;;
46713;SDS011;32445;51.376;10.874;2022-10-16T12:44:47;1.30;;;0.23;;
46713;SDS011;32445;51.376;10.874;2022-10-16T12:47:49;0.13;;;0.13;;
46713;SDS011;32445;51.376;10.874;2022-10-16T12:50:51;0.40;;;0.30;;
46713;SDS011;32445;51.376;10.874;2022-10-16T12:53:58;4.07;;;0.40;;
46713;SDS011;32445;51.376;10.874;2022-10-16T13:06:52;1.95;;;0.20;;
46713;SDS011;32445;51.376;10.874;2022-10-16T13:23:17;3.80;;;0.10;;
46713;SDS011;32445;51.376;10.874;2022-10-16T13:29:31;3.40;;;0.30;;
46713;SDS011;32445;51.376;10.874;2022-10-16T13:32:33;2.17;;;0.30;;
46713;SDS011;32445;51.376;10.874;2022-10-16T13:35:34;1.50;;;0.20;;
46713;SDS011;32445;51.376;10.874;2022-10-16T13:38:36;0.50;;;0.28;;
46713;SDS011;32445;51.376;10.874;2022-10-16T13:41:36;2.17;;;0.20;;
46713;SDS011;32445;51.376;10.874;2022-10-16T13:44:42;2.63;;;0.30;;
46713;SDS011;32445;51.376;10.874;2022-10-16T13:47:46;0.10;;;0.10;;
46713;SDS011;32445;51.376;10.874;2022-10-16T13:50:57;1.88;;;0.25;;
46713;SDS011;32445;51.376;10.874;2022-10-16T13:54:12;0.20;;;0.20;;
46713;SDS011;32445;51.376;10.874;2022-10-16T13:57:13;0.60;;;0.10;;
46713;SDS011;32445;51.376;10.874;2022-10-16T14:00:22;0.38;;;0.10;;
46713;SDS011;32445;51.376;10.874;2022-10-16T14:03:24;0.20;;;0.10;;
46713;SDS011;32445;51.376;10.874;2022-10-16T14:06:26;0.10;;;0.10;;
46713;SDS011;32445;51.376;10.874;2022-10-16T14:09:27;0.20;;;0.10;;
46713;SDS011;32445;51.376;10.874;2022-10-16T14:12:31;1.85;;;0.20;;
46713;SDS011;32445;51.376;10.874;2022-10-16T14:15:32;2.00;;;0.22;;
46713;SDS011;32445;51.376;10.874;2022-10-16T14:18:35;0.43;;;0.30;;
46713;SDS011;32445;51.376;10.874;2022-10-16T14:21:40;0.70;;;0.13;;
46713;SDS011;32445;51.376;10.874;2022-10-16T14:24:40;0.73;;;0.20;;
46713;SDS011;32445;51.376;10.874;2022-10-16T14:27:40;1.80;;;0.13;;
46713;SDS011;32445;51.376;10.874;2022-10-16T14:30:51;0.10;;;0.10;;
46713;SDS011;32445;51.376;10.874;2022-10-16T14:33:59;1.75;;;0.10;;
46713;SDS011;32445;51.376;10.874;2022-10-16T14:37:00;1.75;;;0.10;;
46713;SDS011;32445;51.376;10.874;2022-10-16T14:40:11;0.32;;;0.10;;
46713;SDS011;32445;51.376;10.874;2022-10-16T14:43:20;4.78;;;0.20;;
46713;SDS011;32445;51.376;10.874;2022-10-16T14:46:28;0.47;;;0.35;;
46713;SDS011;32445;51.376;10.874;2022-10-16T14:49:32;0.60;;;0.17;;
46713;SDS011;32445;51.376;10.874;2022-10-16T14:52:33;1.03;;;0.10;;
46713;SDS011;32445;51.376;10.874;2022-10-16T14:55:33;0.20;;;0.10;;
46713;SDS011;32445;51.376;10.874;2022-10-16T14:58:37;1.58;;;0.10;;
46713;SDS011;32445;51.376;10.874;2022-10-16T15:01:37;0.23;;;0.13;;
46713;SDS011;32445;51.376;10.874;2022-10-16T15:04:37;0.30;;;0.10;;
46713;SDS011;32445;51.376;10.874;2022-10-16T15:07:38;0.33;;;0.20;;
46713;SDS011;32445;51.376;10.874;2022-10-16T15:10:41;0.67;;;0.10;;
46713;SDS011;32445;51.376;10.874;2022-10-16T15:13:43;0.65;;;0.28;;
46713;SDS011;32445;51.376;10.874;2022-10-16T15:16:44;0.10;;;0.10;;
46713;SDS011;32445;51.376;10.874;2022-10-16T15:19:45;0.40;;;0.20;;
46713;SDS011;32445;51.376;10.874;2022-10-16T15:22:46;0.40;;;0.20;;
46713;SDS011;32445;51.376;10.874;2022-10-16T15:25:51;0.28;;;0.10;;
46713;SDS011;32445;51.376;10.874;2022-10-16T15:28:53;0.50;;;0.32;;
46713;SDS011;32445;51.376;10.874;2022-10-16T15:31:54;0.43;;;0.20;;
46713;SDS011;32445;51.376;10.874;2022-10-16T15:34:54;0.13;;;0.13;;
46713;SDS011;32445;51.376;10.874;2022-10-16T15:37:55;0.17;;;0.10;;
46713;SDS011;32445;51.376;10.874;2022-10-16T15:40:57;0.85;;;0.52;;
46713;SDS011;32445;51.376;10.874;2022-10-16T15:43:58;0.28;;;0.20;;
46713;SDS011;32445;51.376;10.874;2022-10-16T15:46:58;0.67;;;0.20;;
46713;SDS011;32445;51.376;10.874;2022-10-16T15:50:00;0.22;;;0.22;;
46713;SDS011;32445;51.376;10.874;2022-10-16T15:53:00;0.87;;;0.30;;
46713;SDS011;32445;51.376;10.874;2022-10-16T15:56:04;1.20;;;0.30;;
46713;SDS011;32445;51.376;10.874;2022-10-16T15:59:05;2.03;;;0.32;;
46713;SDS011;32445;51.376;10.874;2022-10-16T16:02:06;0.40;;;0.27;;
46713;SDS011;32445;51.376;10.874;2022-10-16T16:05:08;0.43;;;0.20;;
46713;SDS011;32445;51.376;10.874;2022-10-16T16:08:10;1.33;;;0.30;;
46713;SDS011;32445;51.376;10.874;2022-10-16T16:11:12;0.60;;;0.20;;
46713;SDS011;32445;51.376;10.874;2022-10-16T16:14:14;0.35;;;0.20;;
46713;SDS011;32445;51.376;10.874;2022-10-16T16:17:15;0.20;;;0.20;;
46713;SDS011;32445;51.376;10.874;2022-10-16T16:20:15;0.40;;;0.40;;
46713;SDS011;32445;51.376;10.874;2022-10-16T16:23:15;0.33;;;0.10;;
46713;SDS011;32445;51.376;10.874;2022-10-16T16:26:26;0.45;;;0.40;;
46713;SDS011;32445;51.376;10.874;2022-10-16T16:29:29;2.25;;;0.50;;
46713;SDS011;32445;51.376;10.874;2022-10-16T16:32:30;1.00;;;0.90;;
46713;SDS011;32445;51.376;10.874;2022-10-16T16:35:30;2.88;;;1.60;;
46713;SDS011;32445;51.376;10.874;2022-10-16T16:38:31;3.50;;;1.50;;
46713;SDS011;32445;51.376;10.874;2022-10-16T16:41:32;9.55;;;2.65;;
46713;SDS011;32445;51.376;10.874;2022-10-16T16:44:33;3.15;;;1.98;;
46713;SDS011;32445;51.376;10.874;2022-10-16T16:47:35;2.25;;;1.77;;
46713;SDS011;32445;51.376;10.874;2022-10-16T16:50:38;3.45;;;2.95;;
46713;SDS011;32445;51.376;10.874;2022-10-16T16:53:38;2.20;;;1.97;;
46713;SDS011;32445;51.376;10.874;2022-10-16T16:56:39;3.67;;;1.37;;
46713;SDS011;32445;51.376;10.874;2022-10-16T16:59:42;2.80;;;0.98;;
46713;SDS011;32445;51.376;10.874;2022-10-16T17:02:42;5.43;;;1.07;;
46713;SDS011;32445;51.376;10.874;2022-10-16T17:05:54;2.38;;;0.70;;
46713;SDS011;32445;51.376;10.874;2022-10-16T17:08:57;1.33;;;0.88;;
46713;SDS011;32445;51.376;10.874;2022-10-16T17:11:58;0.80;;;0.80;;
46713;SDS011;32445;51.376;10.874;2022-10-16T17:14:59;0.70;;;0.70;;
46713;SDS011;32445;51.376;10.874;2022-10-16T17:17:59;2.07;;;1.13;;
46713;SDS011;32445;51.376;10.874;2022-10-16T17:21:00;1.58;;;1.42;;
46713;SDS011;32445;51.376;10.874;2022-10-16T17:24:03;2.63;;;1.80;;
46713;SDS011;32445;51.376;10.874;2022-10-16T17:27:04;6.82;;;3.33;;
46713;SDS011;32445;51.376;10.874;2022-10-16T17:30:04;4.10;;;3.20;;
46713;SDS011;32445;51.376;10.874;2022-10-16T17:33:05;4.72;;;3.40;;
46713;SDS011;32445;51.376;10.874;2022-10-16T17:36:07;7.47;;;4.05;;
46713;SDS011;32445;51.376;10.874;2022-10-16T17:39:08;7.03;;;4.23;;
46713;SDS011;32445;51.376;10.874;2022-10-16T17:42:10;4.03;;;3.50;;
46713;SDS011;32445;51.376;10.874;2022-10-16T17:45:11;4.87;;;3.43;;
46713;SDS011;32445;51.376;10.874;2022-10-16T17:48:11;3.73;;;3.43;;
46713;SDS011;32445;51.376;10.874;2022-10-16T17:51:12;3.97;;;3.47;;
46713;SDS011;32445;51.376;10.874;2022-10-16T17:54:14;3.88;;;3.58;;
46713;SDS011;32445;51.376;10.874;2022-10-16T17:57:14;3.73;;;3.43;;
46713;SDS011;32445;51.376;10.874;2022-10-16T18:00:15;3.50;;;3.20;;
46713;SDS011;32445;51.376;10.874;2022-10-16T18:03:15;4.07;;;3.47;;
46713;SDS011;32445;51.376;10.874;2022-10-16T18:06:16;3.60;;;2.50;;
46713;SDS011;32445;51.376;10.874;2022-10-16T18:09:17;2.37;;;2.17;;
46713;SDS011;32445;51.376;10.874;2022-10-16T18:12:19;4.32;;;2.20;;
46713;SDS011;32445;51.376;10.874;2022-10-16T18:15:20;2.03;;;1.83;;
46713;SDS011;32445;51.376;10.874;2022-10-16T18:18:20;2.67;;;1.63;;
46713;SDS011;32445;51.376;10.874;2022-10-16T18:21:20;1.60;;;1.50;;
46713;SDS011;32445;51.376;10.874;2022-10-16T18:24:21;2.50;;;1.90;;
46713;SDS011;32445;51.376;10.874;2022-10-16T18:27:25;1.92;;;1.73;;
46713;SDS011;32445;51.376;10.874;2022-10-16T18:30:25;5.93;;;2.13;;
46713;SDS011;32445;51.376;10.874;2022-10-16T18:33:25;2.40;;;2.17;;
46713;SDS011;32445;51.376;10.874;2022-10-16T18:36:28;3.25;;;2.33;;
46713;SDS011;32445;51.376;10.874;2022-10-16T18:39:31;4.00;;;2.40;;
46713;SDS011;32445;51.376;10.874;2022-10-16T18:42:31;2.70;;;2.13;;
46713;SDS011;32445;51.376;10.874;2022-10-16T18:45:31;2.70;;;2.30;;
46713;SDS011;32445;51.376;10.874;2022-10-16T18:48:32;2.47;;;2.27;;
46713;SDS011;32445;51.376;10.874;2022-10-16T18:51:35;4.35;;;2.17;;
46713;SDS011;32445;51.376;10.874;2022-10-16T18:54:36;4.00;;;2.38;;
46713;SDS011;32445;51.376;10.874;2022-10-16T18:57:37;4.17;;;2.37;;
46713;SDS011;32445;51.376;10.874;2022-10-16T19:00:37;2.33;;;2.10;;
46713;SDS011;32445;51.376;10.874;2022-10-16T19:03:37;5.03;;;2.07;;
46713;SDS011;32445;51.376;10.874;2022-10-16T19:06:46;2.00;;;1.85;;
46713;SDS011;32445;51.376;10.874;2022-10-16T19:09:48;10.20;;;2.25;;
46713;SDS011;32445;51.376;10.874;2022-10-16T19:12:49;2.30;;;2.10;;
46713;SDS011;32445;51.376;10.874;2022-10-16T19:15:49;1.70;;;1.60;;
46713;SDS011;32445;51.376;10.874;2022-10-16T19:18:50;2.40;;;1.97;;
46713;SDS011;32445;51.376;10.874;2022-10-16T19:21:52;1.92;;;1.52;;
46713;SDS011;32445;51.376;10.874;2022-10-16T19:25:10;2.65;;;1.67;;
46713;SDS011;32445;51.376;10.874;2022-10-16T19:28:10;4.50;;;1.70;;
46713;SDS011;32445;51.376;10.874;2022-10-16T19:31:12;4.43;;;1.50;;
46713;SDS011;32445;51.376;10.874;2022-10-16T19:34:14;6.03;;;2.17;;
46713;SDS011;32445;51.376;10.874;2022-10-16T19:37:14;2.67;;;2.47;;
46713;SDS011;32445;51.376;10.874;2022-10-16T19:40:14;2.00;;;1.77;;
46713;SDS011;32445;51.376;10.874;2022-10-16T19:43:15;2.17;;;1.97;;
46713;SDS011;32445;51.376;10.874;2022-10-16T19:46:19;1.83;;;1.60;;
46713;SDS011;32445;51.376;10.874;2022-10-16T19:49:22;2.70;;;1.52;;
46713;SDS011;32445;51.376;10.874;2022-10-16T19:52:22;4.03;;;1.83;;
46713;SDS011;32445;51.376;10.874;2022-10-16T19:55:22;2.00;;;1.83;;
46713;SDS011;32445;51.376;10.874;2022-10-16T19:58:23;2.60;;;1.80;;